Montacute, United Kingdom
Current Conditions -  °F | °C
As of 1:50 AM on Friday 21 Nov 2014 (Local Time) from EGDY Reporting Station
Haze Haze  
Wind Chill: 42°   Ceiling: 2200
Heat Index: 46°   Visibility: 3mi
Dew Point: 43°   Wind: 8mph
Humidity: 87%   Direction: 70°ENE
Pressure: 30.12"   Gusts: NA
Location:  50.95°N, 2.72°W
Report Text: EGDY 210150Z 07007KT 5000 HZ OVC022 08/06 Q1020 WHT
Loading
Personal Weather Stations






























Interactive Weather Map New forecast layout! Learn more

10-Day Weather Forecast

Advertisements
Track Severe Weather on mobile